createdAt,value
2018-04-25T20:38:30.553Z,15.19
2018-04-25T20:39:45.704Z,15.25
2018-04-25T20:41:00.389Z,15.07
2018-04-25T20:42:14.806Z,14.99
2018-04-25T20:43:29.498Z,15
2018-04-25T20:44:44.139Z,14.92
2018-04-25T20:45:58.357Z,14.9
2018-04-25T20:47:13.289Z,14.93
2018-04-25T20:48:28.310Z,14.9
2018-04-25T20:49:43.219Z,14.81
2018-04-25T20:54:23.441Z,14.59
2018-04-25T20:55:37.979Z,14.56
2018-04-25T20:56:52.075Z,14.52
2018-04-25T20:58:06.356Z,14.58
2018-04-25T20:59:21.079Z,14.53
2018-04-25T21:00:35.790Z,14.41
2018-04-25T21:01:50.192Z,14.37
2018-04-25T21:03:04.249Z,14.36
2018-04-25T21:04:19.083Z,14.33
2018-04-25T21:05:33.722Z,14.34
2018-04-25T21:06:47.815Z,14.31
2018-04-25T21:08:02.501Z,14.19
2018-04-25T21:09:16.905Z,14.33
2018-04-25T21:10:31.387Z,14.26
2018-04-25T21:11:46.237Z,14.19
2018-04-25T21:13:00.641Z,14.2
2018-04-25T21:14:15.993Z,14.19
2018-04-25T21:15:30.427Z,14.18
2018-04-25T21:16:44.959Z,14.13
2018-04-25T21:17:59.941Z,14.11
2018-04-25T21:19:14.053Z,14.15
2018-04-25T21:20:28.752Z,14.18
2018-04-25T21:21:43.350Z,14.04
2018-04-25T21:22:57.495Z,14.07
2018-04-25T21:24:14.828Z,14.11
2018-04-25T21:25:28.487Z,14.15
2018-04-25T21:26:43.316Z,14.08
2018-04-25T21:27:57.729Z,14.13
2018-04-25T21:29:12.042Z,14.04
2018-04-25T21:30:26.994Z,14.07
2018-04-25T21:31:41.332Z,14.11
2018-04-25T21:32:55.752Z,14.07
2018-04-25T21:34:10.309Z,14.05
2018-04-25T21:35:24.174Z,14.11
2018-04-25T21:36:38.146Z,14.11
2018-04-25T21:37:52.301Z,14.18
2018-04-25T21:39:07.186Z,14.13
2018-04-25T21:40:21.513Z,14.04
2018-04-25T21:41:36.039Z,14.13
2018-04-25T21:42:51.125Z,14.08
2018-04-25T21:44:05.431Z,14.08
2018-04-25T21:45:20.040Z,14.15
2018-04-25T21:46:34.537Z,14.07
2018-04-25T21:47:48.653Z,14.13
2018-04-25T21:49:03.103Z,14.13
2018-04-25T21:50:17.231Z,14.12
2018-04-25T21:51:32.027Z,14.12
2018-04-25T21:52:46.352Z,14.07
2018-04-25T21:54:00.170Z,14.11
2018-04-25T21:55:15.059Z,14.13
2018-04-25T21:56:29.406Z,14.05
2018-04-25T21:57:44.317Z,14.04
2018-04-25T21:58:58.099Z,14
2018-04-25T22:00:12.004Z,14.01
2018-04-25T22:01:26.560Z,13.91
2018-04-25T22:02:40.956Z,13.91
2018-04-25T22:03:55.932Z,13.91
2018-04-25T22:05:10.293Z,13.8
2018-04-25T22:06:24.403Z,13.85
2018-04-25T22:07:38.442Z,13.79
2018-04-25T22:08:52.250Z,13.85
2018-04-25T22:10:06.658Z,13.87
2018-04-25T22:11:20.655Z,13.82
2018-04-25T22:12:35.171Z,13.86
2018-04-25T22:13:48.644Z,13.73
2018-04-25T22:15:03.131Z,13.73
2018-04-25T22:16:17.826Z,13.75
2018-04-25T22:17:32.337Z,13.79
2018-04-25T22:18:46.783Z,13.65
2018-04-25T22:20:01.083Z,13.75
2018-04-25T22:21:15.537Z,13.75
2018-04-25T22:22:30.294Z,13.64
2018-04-25T22:23:44.560Z,13.67
2018-04-25T22:24:58.692Z,13.67
2018-04-25T22:26:12.605Z,13.6
2018-04-25T22:27:27.191Z,13.57
2018-04-25T22:28:41.649Z,13.55
2018-04-25T22:29:55.494Z,13.58
2018-04-25T22:31:09.669Z,13.55
2018-04-25T22:32:24.305Z,13.47
2018-04-25T22:33:38.971Z,13.52
2018-04-25T22:34:53.096Z,13.46
2018-04-25T22:36:07.289Z,13.45
2018-04-25T22:37:21.604Z,13.4
2018-04-25T22:38:36.041Z,13.39
2018-04-25T22:39:50.316Z,13.31
2018-04-25T22:41:04.634Z,13.33
2018-04-25T22:42:18.884Z,13.27
2018-04-25T22:43:33.067Z,13.3
2018-04-25T22:45:44.617Z,13.23
2018-04-25T22:46:58.977Z,13.28
2018-04-25T22:48:13.099Z,13.21
2018-04-25T22:49:27.848Z,13.36
2018-04-25T22:50:41.807Z,13.28
2018-04-25T22:51:56.818Z,13.23
2018-04-25T22:53:10.721Z,13.24
2018-04-25T22:54:25.235Z,13.26
2018-04-25T22:55:40.061Z,13.26
2018-04-25T22:56:54.323Z,13.3
2018-04-25T22:58:08.266Z,13.24
2018-04-25T22:59:22.601Z,13.28
2018-04-25T23:00:36.549Z,13.24
2018-04-25T23:01:51.140Z,13.17
2018-04-25T23:03:05.366Z,13.23
2018-04-25T23:04:20.040Z,13.26
2018-04-25T23:05:34.225Z,13.24
2018-04-25T23:06:48.716Z,13.27
2018-04-25T23:08:03.187Z,13.26
2018-04-25T23:09:17.770Z,13.26
2018-04-25T23:10:32.842Z,13.27
2018-04-25T23:11:47.252Z,13.3
2018-04-25T23:13:01.188Z,13.27
2018-04-25T23:14:15.925Z,13.3
2018-04-25T23:15:30.240Z,13.27
2018-04-25T23:16:45.983Z,13.39
2018-04-25T23:18:00.150Z,13.39
2018-04-25T23:19:14.229Z,13.4
2018-04-25T23:20:28.693Z,13.4
2018-04-25T23:21:43.578Z,13.39
2018-04-25T23:22:57.531Z,13.46
2018-04-25T23:24:12.135Z,13.52
2018-04-25T23:25:26.784Z,13.46
2018-04-25T23:26:40.855Z,13.42
2018-04-25T23:27:55.608Z,13.4
2018-04-25T23:29:10.349Z,13.43
2018-04-25T23:30:25.028Z,13.39
2018-04-25T23:31:39.382Z,13.27
2018-04-25T23:32:53.315Z,13.31
2018-04-25T23:34:08.249Z,13.27
2018-04-25T23:35:22.938Z,13.28
2018-04-25T23:36:36.991Z,13.2
2018-04-25T23:37:50.899Z,13.19
2018-04-25T23:39:05.174Z,13.17
2018-04-25T23:40:19.290Z,13.16
2018-04-25T23:41:33.894Z,13.13
2018-04-25T23:42:48.296Z,13.11
2018-04-25T23:44:02.114Z,13.13
2018-04-25T23:45:16.025Z,13.16
2018-04-25T23:46:30.091Z,13.11
2018-04-25T23:47:45.257Z,13.11
2018-04-25T23:48:59.275Z,13.05
2018-04-25T23:50:13.240Z,13.02
2018-04-25T23:51:27.315Z,12.95
2018-04-25T23:52:41.753Z,12.94
2018-04-25T23:53:56.745Z,12.91
2018-04-25T23:55:10.471Z,12.84
2018-04-25T23:56:24.461Z,12.87
2018-04-25T23:57:38.426Z,12.84
2018-04-25T23:58:52.967Z,12.8
